createdAt,value
2023-03-12T00:00:42.820Z,67.88
2023-03-12T00:03:40.766Z,67.94
2023-03-12T00:06:33.179Z,67.58
2023-03-12T00:09:25.219Z,67.31
2023-03-12T00:12:17.213Z,67.20
2023-03-12T00:15:11.259Z,67.36
2023-03-12T00:18:03.228Z,67.38
2023-03-12T00:20:58.645Z,66.94
2023-03-12T00:23:52.486Z,67.16
2023-03-12T00:26:44.758Z,67.12
2023-03-12T00:29:37.012Z,66.92
2023-03-12T00:32:29.236Z,66.99
2023-03-12T00:35:11.491Z,66.63
2023-03-12T00:38:03.777Z,66.54
2023-03-12T00:40:55.989Z,66.53
2023-03-12T00:43:48.534Z,66.38
2023-03-12T00:46:40.551Z,66.28
2023-03-12T00:49:32.721Z,66.33
2023-03-12T00:52:24.884Z,66.56
2023-03-12T00:55:16.987Z,66.38
2023-03-12T00:58:08.981Z,66.53
2023-03-12T01:01:01.199Z,66.47
2023-03-12T01:03:54.121Z,66.46
2023-03-12T01:06:46.391Z,66.43
2023-03-12T01:09:38.961Z,66.50
2023-03-12T01:12:31.059Z,66.30
2023-03-12T01:15:23.344Z,66.43
2023-03-12T01:18:15.448Z,66.49
2023-03-12T01:21:08.342Z,66.53
2023-03-12T01:24:00.450Z,66.29
2023-03-12T01:26:52.707Z,66.16
2023-03-12T01:29:44.802Z,66.38
2023-03-12T01:32:36.881Z,66.43
2023-03-12T01:35:29.049Z,66.53
2023-03-12T01:38:21.148Z,66.51
2023-03-12T01:41:13.135Z,66.71
2023-03-12T01:44:06.601Z,66.53
2023-03-12T01:46:58.610Z,66.88
2023-03-12T01:49:51.615Z,66.96
2023-03-12T01:52:43.755Z,67.02
2023-03-12T01:55:35.908Z,67.01
2023-03-12T01:58:30.334Z,66.85
2023-03-12T02:01:23.255Z,66.93
2023-03-12T02:04:17.293Z,67.04
2023-03-12T02:07:12.332Z,67.14
2023-03-12T02:10:05.448Z,67.01
2023-03-12T02:12:57.603Z,67.21
2023-03-12T02:15:49.687Z,67.24
2023-03-12T02:18:41.889Z,67.35
2023-03-12T02:21:37.187Z,67.37
2023-03-12T02:24:35.095Z,67.37
2023-03-12T02:27:27.272Z,67.34
2023-03-12T02:30:20.535Z,67.40
2023-03-12T02:33:15.051Z,67.43
2023-03-12T02:36:09.140Z,67.25
2023-03-12T02:39:01.164Z,67.19
2023-03-12T02:41:55.295Z,67.55
2023-03-12T02:44:50.423Z,67.54
2023-03-12T02:47:42.471Z,67.93
2023-03-12T02:50:34.475Z,67.79
2023-03-12T02:53:26.512Z,67.93
2023-03-12T02:56:18.486Z,67.94
2023-03-12T02:59:11.794Z,67.89
2023-03-12T03:02:04.451Z,67.92
2023-03-12T03:04:56.509Z,67.91
2023-03-12T03:07:48.559Z,67.80
2023-03-12T03:10:40.604Z,67.71
2023-03-12T03:13:32.692Z,67.79
2023-03-12T03:16:25.521Z,67.72
2023-03-12T03:19:17.547Z,67.66
2023-03-12T03:22:09.584Z,67.79
2023-03-12T03:25:01.631Z,67.87
2023-03-12T03:27:53.741Z,67.89
2023-03-12T03:30:45.782Z,68.01
2023-03-12T03:33:39.656Z,68.02
2023-03-12T03:36:31.720Z,68.10
2023-03-12T03:39:25.190Z,68.05
2023-03-12T03:42:17.226Z,68.08
2023-03-12T03:45:11.467Z,68.04
2023-03-12T03:48:03.666Z,67.83
2023-03-12T03:50:56.165Z,68.00
2023-03-12T03:53:48.193Z,68.02
2023-03-12T03:56:40.897Z,67.95
2023-03-12T03:59:33.126Z,67.90
2023-03-12T04:02:25.295Z,67.75
2023-03-12T04:05:19.575Z,67.90
2023-03-12T04:08:12.101Z,68.02
2023-03-12T04:11:10.103Z,67.90
2023-03-12T04:14:02.089Z,67.86
2023-03-12T04:16:54.111Z,67.41
2023-03-12T04:19:46.199Z,67.33
2023-03-12T04:22:38.419Z,66.99
2023-03-12T04:25:30.490Z,66.89
2023-03-12T04:28:22.477Z,66.71
2023-03-12T04:31:14.897Z,66.56
2023-03-12T04:34:06.877Z,66.45
2023-03-12T04:36:58.981Z,66.57
2023-03-12T04:39:51.284Z,66.35
2023-03-12T04:42:43.292Z,66.40
2023-03-12T04:45:35.292Z,66.45
2023-03-12T04:48:27.989Z,66.39
2023-03-12T04:51:19.988Z,66.30
2023-03-12T04:54:12.138Z,66.20
2023-03-12T04:57:04.310Z,66.16
2023-03-12T04:59:56.570Z,66.23
2023-03-12T05:02:48.433Z,66.18
2023-03-12T05:05:40.560Z,66.11
2023-03-12T05:08:32.515Z,66.24
2023-03-12T05:11:25.083Z,66.29
2023-03-12T05:14:17.050Z,66.29
2023-03-12T05:17:09.120Z,66.35
2023-03-12T05:20:01.467Z,66.44
2023-03-12T05:22:53.477Z,66.57
2023-03-12T05:25:45.457Z,66.24
2023-03-12T05:28:37.432Z,66.21
2023-03-12T05:31:33.228Z,66.09
2023-03-12T05:34:25.281Z,65.78
2023-03-12T05:37:17.345Z,65.62
2023-03-12T05:40:13.798Z,65.25
2023-03-12T05:43:05.933Z,65.17
2023-03-12T05:46:02.068Z,65.06
2023-03-12T05:48:54.498Z,64.59
2023-03-12T05:51:47.758Z,64.53
2023-03-12T05:54:39.989Z,64.28
2023-03-12T05:57:32.069Z,64.36
2023-03-12T06:00:25.110Z,63.88
2023-03-12T06:03:17.388Z,63.86
2023-03-12T06:06:09.771Z,63.82
2023-03-12T06:09:01.883Z,63.67
2023-03-12T06:11:54.029Z,63.53
2023-03-12T06:14:46.080Z,63.30
2023-03-12T06:17:38.258Z,62.95
2023-03-12T06:20:30.328Z,62.52
2023-03-12T06:23:22.394Z,62.36
2023-03-12T06:26:00.412Z,62.23
2023-03-12T06:28:53.448Z,62.13
2023-03-12T06:31:45.636Z,62.02
2023-03-12T06:34:37.800Z,61.87
2023-03-12T06:37:30.308Z,61.70
2023-03-12T06:40:22.930Z,61.27
2023-03-12T06:43:14.903Z,61.74
2023-03-12T06:46:08.681Z,61.17
2023-03-12T06:49:00.689Z,60.67
2023-03-12T06:51:52.712Z,60.93
2023-03-12T06:54:45.170Z,60.28
2023-03-12T06:57:37.702Z,60.14
2023-03-12T07:00:15.014Z,60.13
2023-03-12T07:02:51.960Z,59.88
2023-03-12T07:05:46.828Z,59.35
2023-03-12T07:08:39.140Z,58.64
2023-03-12T07:11:31.273Z,59.20
2023-03-12T07:14:23.563Z,59.43
2023-03-12T07:17:15.729Z,58.47
2023-03-12T07:20:09.680Z,58.11
2023-03-12T07:23:03.040Z,57.50
2023-03-12T07:25:55.765Z,57.48
2023-03-12T07:28:48.246Z,57.70
2023-03-12T07:31:40.720Z,58.03
2023-03-12T07:34:33.025Z,57.37
2023-03-12T07:37:25.624Z,56.21
2023-03-12T07:40:18.598Z,56.04
2023-03-12T07:43:12.754Z,56.33
2023-03-12T07:46:05.101Z,56.18
2023-03-12T07:48:57.419Z,56.42
2023-03-12T07:51:50.224Z,55.72
2023-03-12T07:54:42.766Z,55.89
2023-03-12T07:57:35.216Z,55.80
2023-03-12T08:00:28.672Z,55.45
2023-03-12T08:03:21.395Z,56.42
2023-03-12T08:06:13.757Z,57.46
2023-03-12T08:08:54.986Z,55.32
2023-03-12T08:11:47.265Z,51.82
2023-03-12T08:14:39.713Z,47.82
2023-03-12T08:17:31.871Z,43.83
2023-03-12T08:20:24.158Z,42.92
2023-03-12T08:23:16.302Z,40.78
2023-03-12T08:26:08.671Z,39.17
2023-03-12T08:29:01.284Z,37.50
2023-03-12T08:32:04.195Z,35.15
2023-03-12T08:34:57.687Z,33.79
2023-03-12T08:37:50.150Z,32.55
2023-03-12T08:40:42.561Z,31.35
2023-03-12T08:43:34.711Z,30.32
2023-03-12T08:46:26.847Z,29.46
2023-03-12T08:49:08.315Z,28.57
2023-03-12T08:52:00.780Z,27.96
2023-03-12T08:54:53.232Z,26.91
2023-03-12T08:57:45.586Z,26.46
2023-03-12T09:00:37.707Z,25.70
2023-03-12T09:03:29.846Z,25.19
2023-03-12T09:06:22.224Z,24.81
2023-03-12T09:09:05.184Z,25.88
2023-03-12T09:11:57.488Z,25.52
2023-03-12T09:15:02.992Z,26.92
2023-03-12T09:17:56.503Z,26.50
2023-03-12T09:20:48.821Z,26.92
2023-03-12T09:23:40.862Z,25.94
2023-03-12T09:26:32.891Z,25.02
2023-03-12T09:29:24.948Z,25.17
2023-03-12T09:32:17.249Z,25.85
2023-03-12T09:34:49.389Z,25.12
2023-03-12T09:37:41.508Z,24.68
2023-03-12T09:40:39.913Z,25.75
2023-03-12T09:43:38.488Z,25.86
2023-03-12T09:46:42.331Z,25.93
2023-03-12T09:49:40.613Z,25.02
2023-03-12T09:52:36.852Z,24.42
2023-03-12T09:55:35.839Z,23.36
2023-03-12T09:58:18.368Z,22.71
2023-03-12T10:01:26.470Z,22.32
2023-03-12T10:04:37.819Z,21.87
2023-03-12T10:07:43.975Z,21.78
2023-03-12T10:10:50.900Z,21.35
2023-03-12T10:13:44.937Z,20.58
2023-03-12T10:16:50.221Z,20.35
2023-03-12T10:19:56.923Z,19.86
2023-03-12T10:22:56.713Z,20.06
2023-03-12T10:25:37.459Z,20.00
2023-03-12T10:28:35.556Z,20.59
2023-03-12T10:31:31.973Z,21.77
2023-03-12T10:34:16.559Z,22.63
2023-03-12T10:37:18.331Z,21.70
2023-03-12T10:43:25.324Z,21.66
2023-03-12T10:46:40.290Z,22.84
2023-03-12T10:49:37.738Z,23.80
2023-03-12T10:52:29.796Z,25.43
2023-03-12T10:55:27.454Z,26.09
2023-03-12T10:58:27.316Z,24.69
2023-03-12T11:01:25.597Z,23.51
2023-03-12T11:04:23.118Z,23.53
2023-03-12T11:07:27.699Z,24.14
2023-03-12T11:10:24.954Z,25.44
2023-03-12T11:13:32.040Z,24.99
2023-03-12T11:16:31.972Z,23.82
2023-03-12T11:19:31.967Z,23.86
2023-03-12T11:22:35.545Z,24.41
2023-03-12T11:25:31.754Z,24.23
2023-03-12T11:28:16.240Z,25.14
2023-03-12T11:31:16.967Z,24.30
2023-03-12T11:34:15.796Z,24.08
2023-03-12T11:37:27.286Z,24.35
2023-03-12T11:40:39.133Z,25.05
2023-03-12T11:43:47.780Z,26.00
2023-03-12T11:46:52.299Z,25.60
2023-03-12T11:50:15.691Z,25.58
2023-03-12T11:53:30.705Z,26.84
2023-03-12T11:56:30.635Z,27.36
2023-03-12T11:59:37.239Z,27.08
2023-03-12T12:02:45.538Z,26.79
2023-03-12T12:05:50.413Z,27.03
2023-03-12T12:09:09.020Z,27.12
2023-03-12T12:12:14.795Z,27.10
2023-03-12T12:15:02.051Z,26.54
2023-03-12T12:18:04.123Z,26.02
2023-03-12T12:21:02.362Z,26.67
2023-03-12T12:24:01.510Z,27.13
2023-03-12T12:27:01.282Z,27.40
2023-03-12T12:30:10.395Z,27.48
2023-03-12T12:33:30.747Z,27.42
2023-03-12T12:36:24.943Z,26.99
2023-03-12T12:39:23.284Z,27.12
2023-03-12T12:42:22.306Z,26.42
2023-03-12T12:45:17.895Z,26.56
2023-03-12T12:48:15.518Z,26.55
2023-03-12T12:50:52.252Z,27.18
2023-03-12T12:53:56.618Z,27.12
2023-03-12T12:56:53.611Z,26.40
2023-03-12T12:59:52.570Z,26.20
2023-03-12T13:02:48.945Z,25.90
2023-03-12T13:06:05.035Z,25.56
2023-03-12T13:09:16.531Z,25.50
2023-03-12T13:12:30.418Z,25.86
2023-03-12T13:15:40.114Z,25.88
2023-03-12T13:18:33.395Z,26.67
2023-03-12T13:21:31.976Z,27.09
2023-03-12T13:24:31.090Z,27.41
2023-03-12T13:27:26.234Z,27.73
2023-03-12T13:30:51.395Z,28.15
2023-03-12T13:33:46.215Z,28.55
2023-03-12T13:36:39.712Z,29.11
2023-03-12T13:39:36.554Z,29.75
2023-03-12T13:42:41.859Z,29.77
2023-03-12T13:45:35.396Z,30.05
2023-03-12T13:48:28.183Z,29.93
2023-03-12T13:51:24.250Z,29.76
2023-03-12T13:54:20.222Z,30.05
2023-03-12T13:57:27.162Z,30.25
2023-03-12T14:00:25.688Z,30.45
2023-03-12T14:03:22.551Z,30.86
2023-03-12T14:06:19.338Z,31.64
2023-03-12T14:09:24.073Z,31.72
2023-03-12T14:12:23.658Z,31.52
2023-03-12T14:15:26.521Z,31.46
2023-03-12T14:18:22.382Z,31.33
2023-03-12T14:21:01.492Z,31.42
2023-03-12T14:23:57.724Z,31.78
2023-03-12T14:26:50.029Z,32.19
2023-03-12T14:29:47.933Z,32.17
2023-03-12T14:32:41.426Z,32.19
2023-03-12T14:35:40.694Z,31.91
2023-03-12T14:38:36.196Z,32.30
2023-03-12T14:41:31.252Z,32.25
2023-03-12T14:44:27.033Z,32.52
2023-03-12T14:47:20.654Z,32.83
2023-03-12T14:50:21.523Z,32.97
2023-03-12T14:53:24.481Z,33.53
2023-03-12T14:56:24.702Z,33.63
2023-03-12T14:59:32.145Z,33.78
2023-03-12T15:02:15.769Z,33.91
2023-03-12T15:05:17.034Z,34.14
2023-03-12T15:08:12.661Z,34.24
2023-03-12T15:11:04.938Z,34.68
2023-03-12T15:14:03.219Z,34.90
2023-03-12T15:16:55.693Z,34.89
2023-03-12T15:19:50.368Z,35.10
2023-03-12T15:22:43.174Z,35.34
2023-03-12T15:25:36.592Z,35.65
2023-03-12T15:28:30.291Z,35.52
2023-03-12T15:31:22.627Z,35.74
2023-03-12T15:34:27.224Z,35.95
2023-03-12T15:37:29.715Z,36.25
2023-03-12T15:40:24.728Z,36.51
2023-03-12T15:43:25.136Z,36.83
2023-03-12T15:46:20.199Z,37.04
2023-03-12T15:49:25.004Z,36.97
2023-03-12T15:52:32.180Z,37.22
2023-03-12T15:55:29.394Z,37.52
2023-03-12T15:58:29.872Z,37.21
2023-03-12T16:01:24.052Z,37.33
2023-03-12T16:04:16.612Z,37.38
2023-03-12T16:07:14.885Z,37.50
2023-03-12T16:10:08.581Z,37.57
2023-03-12T16:13:04.825Z,37.66
2023-03-12T16:15:57.703Z,37.72
2023-03-12T16:18:49.827Z,37.70
2023-03-12T16:21:42.126Z,37.66
2023-03-12T16:24:34.097Z,37.73
2023-03-12T16:27:18.078Z,37.91
2023-03-12T16:30:19.515Z,38.11
2023-03-12T16:33:17.123Z,38.16
2023-03-12T16:36:15.795Z,38.43
2023-03-12T16:39:07.975Z,38.59
2023-03-12T16:41:50.703Z,38.77
2023-03-12T16:44:46.191Z,39.21
2023-03-12T16:47:38.769Z,39.28
2023-03-12T16:50:31.320Z,39.29
2023-03-12T16:53:25.191Z,39.23
2023-03-12T16:56:20.336Z,39.36
2023-03-12T16:59:18.463Z,39.41
2023-03-12T17:02:18.144Z,39.47
2023-03-12T17:05:11.156Z,39.42
2023-03-12T17:08:03.674Z,39.53
2023-03-12T17:10:56.683Z,39.51
2023-03-12T17:13:51.690Z,39.58
2023-03-12T17:16:43.831Z,39.31
2023-03-12T17:19:35.932Z,39.36
2023-03-12T17:22:28.599Z,39.62
2023-03-12T17:25:23.975Z,39.46
2023-03-12T17:28:16.420Z,39.63
2023-03-12T17:31:08.976Z,39.50
2023-03-12T17:34:03.951Z,39.71
2023-03-12T17:36:56.223Z,40.10
2023-03-12T17:39:48.876Z,40.21
2023-03-12T17:42:37.330Z,40.27
2023-03-12T17:45:29.666Z,40.37
2023-03-12T17:48:23.496Z,40.65
2023-03-12T17:51:15.480Z,40.71
2023-03-12T17:54:07.543Z,41.06
2023-03-12T17:56:59.564Z,41.29
2023-03-12T17:59:51.964Z,41.53
2023-03-12T18:02:44.471Z,41.45
2023-03-12T18:05:39.032Z,41.46
2023-03-12T18:08:31.244Z,41.53
2023-03-12T18:11:06.166Z,41.58
2023-03-12T18:13:58.134Z,41.92
2023-03-12T18:16:50.084Z,41.98
2023-03-12T18:19:42.393Z,41.97
2023-03-12T18:22:34.654Z,41.81
2023-03-12T18:25:26.672Z,41.79
2023-03-12T18:28:19.299Z,41.67
2023-03-12T18:31:11.440Z,41.71
2023-03-12T18:34:03.658Z,41.62
2023-03-12T18:36:55.702Z,41.46
2023-03-12T18:39:39.073Z,41.34
2023-03-12T18:42:31.036Z,41.26
2023-03-12T18:45:05.780Z,41.14
2023-03-12T18:47:56.194Z,40.85
2023-03-12T18:50:48.451Z,40.98
2023-03-12T18:53:40.607Z,40.86
2023-03-12T18:56:32.796Z,40.97
2023-03-12T18:59:25.246Z,40.87
2023-03-12T19:02:17.784Z,41.18
2023-03-12T19:04:58.652Z,41.09
2023-03-12T19:07:50.988Z,41.09
2023-03-12T19:10:46.063Z,41.08
2023-03-12T19:13:38.120Z,41.42
2023-03-12T19:16:30.953Z,41.36
2023-03-12T19:19:23.140Z,41.51
2023-03-12T19:22:15.168Z,41.27
2023-03-12T19:25:08.135Z,41.13
2023-03-12T19:28:00.177Z,40.92
2023-03-12T19:30:52.202Z,41.05
2023-03-12T19:33:44.866Z,41.13
2023-03-12T19:36:37.012Z,41.30
2023-03-12T19:39:29.508Z,41.39
2023-03-12T19:42:21.924Z,41.28
2023-03-12T19:45:14.851Z,41.41
2023-03-12T19:48:08.623Z,41.46
2023-03-12T19:51:05.977Z,41.61
2023-03-12T19:54:00.297Z,41.37
2023-03-12T19:56:53.465Z,41.55
2023-03-12T19:59:47.268Z,41.30
2023-03-12T20:02:41.846Z,41.33
2023-03-12T20:05:36.720Z,41.47
2023-03-12T20:08:33.701Z,41.60
2023-03-12T20:11:27.188Z,41.60
2023-03-12T20:14:20.420Z,41.71
2023-03-12T20:17:13.687Z,41.89
2023-03-12T20:20:08.890Z,42.08
2023-03-12T20:22:56.227Z,42.05
2023-03-12T20:25:50.882Z,42.04
2023-03-12T20:28:43.178Z,42.04
2023-03-12T20:31:35.708Z,42.01
2023-03-12T20:34:28.159Z,42.01
2023-03-12T20:37:20.846Z,42.19
2023-03-12T20:40:14.568Z,42.25
2023-03-12T20:43:06.736Z,42.43
2023-03-12T20:45:59.028Z,42.31
2023-03-12T20:48:51.185Z,42.30
2023-03-12T20:51:44.614Z,42.36
2023-03-12T20:54:36.628Z,42.60
2023-03-12T20:57:28.939Z,42.50
2023-03-12T21:00:22.438Z,42.46
2023-03-12T21:03:16.836Z,42.60
2023-03-12T21:06:09.265Z,42.94
2023-03-12T21:09:01.319Z,42.91
2023-03-12T21:11:53.548Z,43.07
2023-03-12T21:14:45.492Z,42.76
2023-03-12T21:17:38.863Z,42.61
2023-03-12T21:20:30.941Z,42.94
2023-03-12T21:23:23.001Z,43.33
2023-03-12T21:26:15.042Z,43.36
2023-03-12T21:29:07.136Z,43.36
2023-03-12T21:31:59.122Z,43.25
2023-03-12T21:34:51.956Z,43.48
2023-03-12T21:37:44.018Z,43.62
2023-03-12T21:40:37.666Z,43.62
2023-03-12T21:43:31.171Z,43.74
2023-03-12T21:46:24.865Z,43.79
2023-03-12T21:49:18.249Z,43.74
2023-03-12T21:52:10.379Z,43.79
2023-03-12T21:55:02.339Z,43.86
2023-03-12T21:57:54.372Z,44.20
2023-03-12T22:00:46.382Z,43.93
2023-03-12T22:03:39.104Z,44.19
2023-03-12T22:06:31.226Z,43.93
2023-03-12T22:09:23.280Z,44.08
2023-03-12T22:12:15.282Z,44.18
2023-03-12T22:15:08.991Z,44.11
2023-03-12T22:18:01.011Z,44.10
2023-03-12T22:20:57.905Z,44.17
2023-03-12T22:23:52.364Z,44.17
2023-03-12T22:26:44.418Z,44.13
2023-03-12T22:29:37.516Z,44.14
2023-03-12T22:32:30.279Z,44.22
2023-03-12T22:35:25.926Z,44.31
2023-03-12T22:38:17.970Z,44.38
2023-03-12T22:41:18.790Z,44.46
2023-03-12T22:44:10.841Z,44.65
2023-03-12T22:47:02.889Z,44.67
2023-03-12T22:49:57.588Z,44.85
2023-03-12T22:52:49.624Z,45.06
2023-03-12T22:55:41.562Z,45.19
2023-03-12T22:58:34.315Z,45.40
2023-03-12T23:01:26.786Z,45.40
2023-03-12T23:04:18.883Z,45.63
2023-03-12T23:07:14.484Z,45.75
2023-03-12T23:10:10.815Z,45.94
2023-03-12T23:13:02.813Z,46.28
2023-03-12T23:15:54.905Z,46.50
2023-03-12T23:18:47.724Z,46.79
2023-03-12T23:21:39.646Z,47.09
2023-03-12T23:24:33.369Z,47.53
2023-03-12T23:27:25.335Z,47.83
2023-03-12T23:30:18.202Z,48.09
2023-03-12T23:33:10.194Z,48.23
2023-03-12T23:36:04.349Z,48.54
2023-03-12T23:38:56.853Z,48.71
2023-03-12T23:41:48.872Z,48.92
2023-03-12T23:44:40.902Z,49.18
2023-03-12T23:47:32.948Z,49.36
2023-03-12T23:50:24.916Z,49.58
2023-03-12T23:53:17.049Z,49.65
2023-03-12T23:56:11.579Z,49.86
2023-03-12T23:59:05.144Z,50.11
